Time;durP1;ratioP1;P1;durP2;ratioP2;P2;SDS_P1;SDS_P2;PMS_P1;PMS_P2;Temp;Humidity;BMP_temperature;BMP_pressure;BME280_temperature;BME280_humidity;BME280_pressure;Samples;Min_cycle;Max_cycle;Signal;HPM_P1;HPM_P2
2022/08/30 00:03:13;;;;;;;9.47;4.50;;;;;;;15.66;89.74;101922.22;5052138;28;20071;-82
2022/08/30 00:05:39;;;;;;;10.18;4.68;;;;;;;15.64;89.47;101918.97;5033235;28;20397;-83
2022/08/30 00:08:05;;;;;;;8.27;4.50;;;;;;;15.71;89.04;101917.63;5050859;28;20027;-82
2022/08/30 00:10:31;;;;;;;13.50;4.00;;;;;;;15.61;89.14;101904.09;5050938;28;20033;-82
2022/08/30 00:12:57;;;;;;;11.60;4.03;;;;;;;15.64;90.05;101908.16;5054359;28;20029;-82
2022/08/30 00:15:23;;;;;;;9.60;4.43;;;;;;;15.47;90.46;101906.47;5068726;28;20111;-82
2022/08/30 00:17:48;;;;;;;13.40;4.60;;;;;;;15.45;90.78;101911.31;5055038;28;20472;-82
2022/08/30 00:20:17;;;;;;;7.40;4.03;;;;;;;15.40;90.10;101912.13;5050306;28;20037;-82
2022/08/30 00:22:43;;;;;;;9.38;4.35;;;;;;;15.27;91.04;101904.50;5058280;28;20524;-82
2022/08/30 00:25:09;;;;;;;12.80;4.78;;;;;;;15.27;91.18;101905.31;5059500;28;20063;-81
2022/08/30 00:27:35;;;;;;;9.77;4.82;;;;;;;15.22;92.45;101913.38;5061857;28;20037;-81
2022/08/30 00:30:00;;;;;;;8.30;4.23;;;;;;;15.20;92.23;101918.22;5068808;28;20043;-82
2022/08/30 00:32:26;;;;;;;6.43;4.55;;;;;;;15.16;93.96;101919.03;5068460;28;20029;-82
2022/08/30 00:34:53;;;;;;;8.77;4.67;;;;;;;15.12;94.15;101921.44;5060920;28;20028;-81
2022/08/30 00:37:19;;;;;;;9.18;4.78;;;;;;;15.07;93.52;101913.31;5050581;28;20110;-82
2022/08/30 00:39:44;;;;;;;10.68;4.47;;;;;;;15.04;93.66;101920.06;5058390;28;20055;-82
2022/08/30 00:42:11;;;;;;;9.27;4.40;;;;;;;15.04;94.32;101916.53;5070075;28;20097;-82
2022/08/30 00:44:36;;;;;;;12.75;4.95;;;;;;;15.04;94.70;101916.53;5066370;28;20036;-82
2022/08/30 00:47:02;;;;;;;12.50;4.40;;;;;;;15.03;94.21;101915.72;5052604;28;20031;-82
2022/08/30 00:49:28;;;;;;;8.40;4.60;;;;;;;15.03;95.47;101923.00;5053796;28;20024;-81
2022/08/30 00:51:54;;;;;;;13.77;4.93;;;;;;;15.05;94.70;101918.16;5066774;28;20028;-82
2022/08/30 00:54:20;;;;;;;7.00;5.03;;;;;;;15.07;95.13;101921.41;5068331;28;20031;-81
2022/08/30 00:56:47;;;;;;;8.13;4.77;;;;;;;15.17;94.64;101924.16;5068458;28;20028;-82
2022/08/30 00:59:13;;;;;;;9.57;5.05;;;;;;;15.14;95.07;101913.91;5060309;28;20135;-82
2022/08/30 01:01:38;;;;;;;7.53;5.00;;;;;;;15.23;95.79;101925.81;5054862;28;20547;-82
2022/08/30 01:04:07;;;;;;;7.00;4.10;;;;;;;15.23;93.93;101917.72;5049465;28;20029;-81
2022/08/30 01:06:33;;;;;;;11.33;4.53;;;;;;;15.33;93.85;101924.25;5059375;28;20463;-81
2022/08/30 01:17:04;;;;;;;7.50;4.32;;;;;;;15.51;94.18;101931.88;5998558;23;20052;-82
2022/08/30 01:19:34;;;;;;;7.30;4.45;;;;;;;15.60;93.68;101940.28;5067276;28;20113;-81
2022/08/30 01:22:33;;;;;;;7.32;4.88;;;;;;;15.68;91.82;101933.56;5069422;28;20033;-82
2022/08/30 01:25:04;;;;;;;10.93;5.05;;;;;;;15.46;93.30;101891.34;5041019;28;20037;-82
2022/08/30 01:27:30;;;;;;;9.32;5.25;;;;;;;15.47;92.92;101902.94;5032988;28;20026;-81
2022/08/30 01:29:57;;;;;;;9.17;4.83;;;;;;;15.49;92.50;101906.19;5045606;28;20024;-82
2022/08/30 01:32:28;;;;;;;14.13;5.13;;;;;;;15.64;93.12;101935.97;5049649;28;20295;-82
2022/08/30 01:34:55;;;;;;;7.28;4.82;;;;;;;15.42;92.91;101907.28;5048329;28;20158;-81
2022/08/30 01:37:34;;;;;;;12.52;5.20;;;;;;;15.52;92.64;101933.47;5040099;28;20095;-81
2022/08/30 01:40:00;;;;;;;10.65;4.85;;;;;;;15.44;92.94;101925.91;5028922;28;20021;-81
2022/08/30 01:42:26;;;;;;;7.47;4.80;;;;;;;15.35;93.93;101928.28;5012200;28;20136;-82
2022/08/30 01:44:51;;;;;;;9.90;5.43;;;;;;;15.26;94.05;101919.06;5038299;28;20531;-82
2022/08/30 01:47:17;;;;;;;7.17;5.03;;;;;;;15.19;95.06;101923.91;5038859;28;20041;-82
2022/08/30 01:49:44;;;;;;;9.07;5.45;;;;;;;15.09;95.55;101925.47;5045969;28;20563;-81
2022/08/30 01:52:11;;;;;;;7.33;5.60;;;;;;;15.05;95.44;101926.25;5049057;28;20066;-81
2022/08/30 01:54:39;;;;;;;15.00;5.40;;;;;;;14.98;96.32;101929.97;5045154;28;20303;-82
2022/08/30 01:57:10;;;;;;;9.25;5.28;;;;;;;14.90;96.27;101914.28;5042633;28;20060;-81
2022/08/30 01:59:37;;;;;;;9.90;5.32;;;;;;;14.99;96.12;101930.81;5041463;28;20796;-81
2022/08/30 02:02:03;;;;;;;9.35;5.38;;;;;;;14.94;96.51;101928.91;5033165;28;20034;-81
2022/08/30 02:04:28;;;;;;;9.88;5.68;;;;;;;14.90;97.04;101926.97;5029381;28;20045;-81
2022/08/30 02:06:56;;;;;;;11.80;5.30;;;;;;;14.89;97.15;101936.94;5032845;28;20105;-82
2022/08/30 02:09:22;;;;;;;14.17;5.70;;;;;;;14.79;97.26;101920.72;5029905;28;20045;-81
2022/08/30 02:11:47;;;;;;;10.10;5.33;;;;;;;14.78;97.48;101927.19;5034467;28;20021;-82
2022/08/30 02:14:13;;;;;;;12.13;6.10;;;;;;;14.80;97.50;101919.59;5047513;28;20025;-82
2022/08/30 02:16:39;;;;;;;9.38;5.80;;;;;;;14.80;98.19;101917.75;5031639;28;20021;-81
2022/08/30 02:19:05;;;;;;;10.75;6.18;;;;;;;14.74;97.79;101917.97;5037382;28;20182;-82
2022/08/30 02:21:30;;;;;;;11.07;5.85;;;;;;;14.68;97.87;101914.44;5047767;28;20047;-82
2022/08/30 02:23:56;;;;;;;10.90;5.97;;;;;;;14.67;98.43;101905.47;5034655;28;20465;-81
2022/08/30 02:26:22;;;;;;;11.10;6.07;;;;;;;14.62;99.14;101910.81;5045169;28;20021;-82
2022/08/30 02:28:48;;;;;;;9.53;6.60;;;;;;;14.59;100.00;101924.03;5035399;28;20072;-82
2022/08/30 02:31:14;;;;;;;8.60;6.40;;;;;;;14.58;100.00;101917.84;5028797;28;20295;-81
2022/08/30 02:33:40;;;;;;;10.63;5.95;;;;;;;14.58;99.70;101917.00;5031310;28;20030;-82
2022/08/30 02:36:06;;;;;;;7.23;5.63;;;;;;;14.70;98.83;101914.94;5043479;28;20355;-82
2022/08/30 02:38:32;;;;;;;10.90;6.45;;;;;;;14.72;98.74;101914.72;5031627;28;20091;-82
2022/08/30 02:40:58;;;;;;;17.17;6.80;;;;;;;14.62;98.73;101894.63;5030416;28;20025;-82
2022/08/30 02:43:25;;;;;;;12.73;7.23;;;;;;;14.52;100.00;101902.66;5035077;28;20080;-82
2022/08/30 02:45:50;;;;;;;10.05;6.57;;;;;;;14.60;99.69;101904.91;5044202;28;20515;-84
2022/08/30 02:48:16;;;;;;;9.53;6.37;;;;;;;14.59;100.00;101905.97;5035023;28;20057;-81
2022/08/30 02:50:43;;;;;;;9.20;6.82;;;;;;;14.53;100.00;101907.00;5028871;28;20108;-82
2022/08/30 02:53:09;;;;;;;8.67;7.00;;;;;;;14.59;100.00;101914.06;5046368;28;20509;-82
2022/08/30 02:55:35;;;;;;;8.23;7.00;;;;;;;14.66;100.00;101914.63;5046605;28;20035;-82
2022/08/30 02:58:00;;;;;;;9.50;6.23;;;;;;;14.67;99.51;101913.56;5040368;28;20411;-82
2022/08/30 03:00:26;;;;;;;10.97;6.37;;;;;;;14.67;98.90;101910.88;5047763;28;20353;-82
2022/08/30 03:02:51;;;;;;;9.83;6.63;;;;;;;14.61;99.14;101895.72;5050797;28;20469;-81
2022/08/30 03:05:17;;;;;;;8.70;6.13;;;;;;;14.57;99.50;101894.63;5044368;28;20296;-82
2022/08/30 03:07:44;;;;;;;9.17;6.20;;;;;;;14.51;99.44;101890.25;5032981;28;20017;-82
2022/08/30 03:10:10;;;;;;;10.80;7.27;;;;;;;14.46;99.92;101884.81;5032136;28;20287;-82
2022/08/30 03:12:35;;;;;;;10.95;6.70;;;;;;;14.41;99.95;101893.69;5022331;28;20393;-82
2022/08/30 03:15:05;;;;;;;9.70;6.70;;;;;;;14.34;99.86;101893.06;5037707;28;20028;-82
2022/08/30 03:17:30;;;;;;;9.15;6.40;;;;;;;14.27;100.00;101887.09;5043920;28;20033;-82
2022/08/30 03:19:59;;;;;;;9.52;6.40;;;;;;;14.27;99.96;101890.59;5031886;28;20132;-83
2022/08/30 03:22:25;;;;;;;9.98;7.13;;;;;;;14.17;100.00;101885.94;5040684;28;20029;-82
2022/08/30 03:24:50;;;;;;;9.37;6.87;;;;;;;14.21;100.00;101895.13;5032080;28;20033;-82
2022/08/30 03:27:15;;;;;;;10.90;7.35;;;;;;;14.20;100.00;101895.41;5035057;28;20033;-83
2022/08/30 03:29:41;;;;;;;11.37;7.30;;;;;;;14.28;100.00;101897.63;5043599;28;20036;-83
2022/08/30 03:32:07;;;;;;;11.20;7.15;;;;;;;14.37;100.00;101900.66;5050546;28;20112;-82
2022/08/30 03:34:33;;;;;;;9.30;7.30;;;;;;;14.46;100.00;101906.38;5050976;28;20052;-82
2022/08/30 03:37:00;;;;;;;11.43;7.18;;;;;;;14.36;100.00;101888.25;5047440;28;20037;-82
2022/08/30 03:39:26;;;;;;;7.70;5.97;;;;;;;14.56;99.72;101897.56;5052084;28;20033;-82
2022/08/30 03:41:52;;;;;;;10.37;7.20;;;;;;;14.67;99.74;101899.28;5043257;28;20337;-82
2022/08/30 03:44:19;;;;;;;9.63;6.80;;;;;;;14.65;98.63;101891.44;5044999;28;20120;-82
2022/08/30 03:46:45;;;;;;;7.60;6.50;;;;;;;14.66;98.62;101887.66;5040580;28;20028;-82
2022/08/30 03:49:11;;;;;;;9.05;6.78;;;;;;;14.59;99.21;101892.47;5035274;28;20025;-82
2022/08/30 03:51:36;;;;;;;8.90;6.43;;;;;;;14.48;98.68;101888.06;5046844;28;20027;-82
2022/08/30 03:54:02;;;;;;;14.52;7.10;;;;;;;14.45;99.28;101888.56;5031617;28;20037;-82
2022/08/30 03:56:27;;;;;;;12.07;7.60;;;;;;;14.38;100.00;101905.81;5034282;28;20029;-82
2022/08/30 03:58:52;;;;;;;12.60;7.63;;;;;;;14.31;100.00;101899.81;5038062;28;20024;-82
2022/08/30 04:01:21;;;;;;;9.90;6.95;;;;;;;14.32;100.00;101908.72;5032870;28;20037;-82
2022/08/30 04:03:46;;;;;;;9.13;7.40;;;;;;;14.29;99.27;101903.84;5050072;28;20041;-82
2022/08/30 04:06:12;;;;;;;16.33;8.02;;;;;;;14.22;100.00;101901.34;5036433;28;20024;-82
2022/08/30 04:08:37;;;;;;;10.07;7.17;;;;;;;14.21;99.96;101902.44;5040326;28;20476;-82
2022/08/30 04:11:03;;;;;;;12.23;7.28;;;;;;;14.17;100.00;101904.00;5050181;28;20029;-81
2022/08/30 04:13:29;;;;;;;9.37;8.07;;;;;;;14.13;100.00;101902.88;5051003;28;20083;-82
2022/08/30 04:15:54;;;;;;;10.50;7.20;;;;;;;14.10;100.00;101898.81;5039630;28;20466;-82
2022/08/30 04:18:20;;;;;;;11.33;8.13;;;;;;;14.02;100.00;101897.41;5027929;28;20075;-82
2022/08/30 04:20:46;;;;;;;10.82;7.63;;;;;;;14.07;100.00;101899.31;5050624;28;20039;-82
2022/08/30 04:25:56;;;;;;;12.02;8.48;;;;;;;13.72;100.00;101871.75;5858907;22;20044;-82
2022/08/30 04:28:32;;;;;;;13.93;9.70;;;;;;;13.80;100.00;101892.03;5054988;28;20025;-81
2022/08/30 04:31:14;;;;;;;12.88;8.18;;;;;;;13.72;100.00;101876.34;5067001;28;20028;-81
2022/08/30 04:33:48;;;;;;;12.50;8.20;;;;;;;13.88;100.00;101910.47;5070113;28;20537;-82
2022/08/30 04:36:16;;;;;;;11.98;9.25;;;;;;;13.72;100.00;101885.22;5057509;28;20626;-82
2022/08/30 04:39:02;;;;;;;14.98;8.65;;;;;;;13.64;100.00;101880.31;5064296;28;20040;-82
2022/08/30 04:41:41;;;;;;;13.40;8.60;;;;;;;13.73;100.00;101900.31;5061430;28;20155;-81
2022/08/30 04:44:12;;;;;;;13.23;9.02;;;;;;;13.67;100.00;101890.59;5051794;28;20119;-81
2022/08/30 04:46:54;;;;;;;11.83;9.20;;;;;;;13.65;100.00;101881.09;5056616;28;20025;-81
2022/08/30 04:49:25;;;;;;;9.80;8.77;;;;;;;13.88;100.00;101907.75;5058279;28;20299;-82
2022/08/30 04:52:23;;;;;;;14.70;9.98;;;;;;;13.72;100.00;101879.03;5032765;28;20383;-81
2022/08/30 04:55:42;;;;;;;13.63;9.63;;;;;;;14.00;100.00;101923.78;5016020;28;20069;-81
2022/08/30 04:58:09;;;;;;;15.82;9.02;;;;;;;14.05;100.00;101928.41;5057706;28;20033;-82
2022/08/30 05:00:36;;;;;;;14.93;9.55;;;;;;;13.82;100.00;101889.91;5052422;28;20032;-81
2022/08/30 05:03:04;;;;;;;14.85;9.63;;;;;;;13.81;100.00;101892.88;5051122;28;20036;-81
2022/08/30 05:05:38;;;;;;;13.18;9.48;;;;;;;13.75;100.00;101887.41;5055295;28;20021;-82
2022/08/30 05:08:21;;;;;;;14.50;9.05;;;;;;;13.91;100.00;101914.50;5039155;28;20036;-82
2022/08/30 05:10:57;;;;;;;11.38;9.18;;;;;;;13.74;100.00;101891.19;5049943;28;20067;-81
2022/08/30 05:13:23;;;;;;;12.17;9.53;;;;;;;13.72;100.00;101890.63;5050681;28;20108;-81
2022/08/30 05:15:49;;;;;;;15.60;9.13;;;;;;;13.78;100.00;101894.19;5048435;28;20366;-82
2022/08/30 05:18:14;;;;;;;12.00;9.60;;;;;;;13.79;100.00;101898.50;5067783;28;20111;-82
2022/08/30 05:20:40;;;;;;;11.30;9.60;;;;;;;14.01;100.00;101938.88;5070012;28;20028;-82
2022/08/30 05:23:14;;;;;;;12.55;10.13;;;;;;;13.99;100.00;101930.25;5069823;28;20099;-82
2022/08/30 05:25:42;;;;;;;13.73;10.45;;;;;;;13.78;100.00;101915.75;5046604;28;20349;-82
2022/08/30 05:28:11;;;;;;;14.00;11.20;;;;;;;13.78;100.00;101908.47;5051550;28;20083;-82
2022/08/30 05:30:37;;;;;;;14.65;10.25;;;;;;;13.77;100.00;101911.44;5049874;28;20032;-82
2022/08/30 05:33:43;;;;;;;16.60;10.67;;;;;;;13.80;100.00;101910.09;5049488;28;20021;-82
2022/08/30 05:37:02;;;;;;;15.53;11.63;;;;;;;13.77;100.00;101920.31;5060303;28;20298;-84
2022/08/30 05:39:32;;;;;;;14.23;9.80;;;;;;;13.93;100.00;101928.56;5035935;28;20387;-84
2022/08/30 05:42:01;;;;;;;15.05;10.48;;;;;;;13.95;100.00;101918.34;5068631;28;20028;-84
2022/08/30 05:44:51;;;;;;;14.15;11.00;;;;;;;14.33;100.00;101958.88;5068054;28;20032;-83
2022/08/30 05:47:28;;;;;;;18.27;11.07;;;;;;;14.22;100.00;101917.53;5042929;28;20207;-83
2022/08/30 05:49:59;;;;;;;12.65;10.50;;;;;;;14.31;100.00;101925.97;5040975;28;20093;-86
2022/08/30 05:52:38;;;;;;;21.63;11.30;;;;;;;14.45;100.00;101931.72;5055720;28;20035;-86
2022/08/30 05:55:17;;;;;;;13.73;11.02;;;;;;;14.69;100.00;101945.72;5068050;28;20028;-87
2022/08/30 05:57:43;;;;;;;14.90;11.32;;;;;;;14.81;100.00;101959.00;5051981;28;20029;-88
2022/08/30 06:00:12;;;;;;;15.57;10.53;;;;;;;14.92;99.36;101949.09;5060517;28;20488;-88
2022/08/30 06:02:38;;;;;;;16.70;11.70;;;;;;;15.00;98.83;101948.63;5039309;28;20397;-87
2022/08/30 06:05:04;;;;;;;13.70;10.40;;;;;;;15.05;98.71;101956.75;5049478;28;20036;-87
2022/08/30 06:07:30;;;;;;;16.60;10.87;;;;;;;15.09;98.05;101962.44;5045425;28;20304;-87
2022/08/30 06:09:55;;;;;;;14.57;11.17;;;;;;;15.09;98.13;101954.34;5048115;28;20453;-87
2022/08/30 06:12:20;;;;;;;15.10;11.20;;;;;;;15.10;97.29;101956.78;5049701;28;20307;-88
2022/08/30 06:14:46;;;;;;;15.67;11.93;;;;;;;15.11;97.82;101955.72;5048263;28;20025;-86
2022/08/30 06:17:11;;;;;;;16.83;10.87;;;;;;;15.17;97.55;101961.94;5049664;28;20365;-84
2022/08/30 06:19:36;;;;;;;12.93;10.87;;;;;;;15.20;97.40;101958.72;5053099;28;20033;-87
2022/08/30 06:22:02;;;;;;;16.80;11.77;;;;;;;15.20;97.74;101950.63;5067164;28;20044;-89
2022/08/30 06:24:27;;;;;;;15.03;11.03;;;;;;;15.32;97.72;101957.72;5069744;28;20024;-87
2022/08/30 06:26:52;;;;;;;15.13;11.13;;;;;;;15.34;96.53;101952.88;5052108;28;20029;-88
2022/08/30 06:29:20;;;;;;;15.93;11.20;;;;;;;15.40;96.57;101963.44;5062345;28;20032;-88
2022/08/30 06:31:46;;;;;;;18.23;11.32;;;;;;;15.42;96.05;101955.88;5059423;28;20112;-87
2022/08/30 06:34:12;;;;;;;13.48;10.98;;;;;;;15.51;95.60;101953.50;5053055;28;20135;-87
2022/08/30 06:36:37;;;;;;;18.47;9.93;;;;;;;15.58;94.59;101951.34;5056740;28;20048;-86
2022/08/30 06:39:04;;;;;;;15.98;11.07;;;;;;;15.58;95.31;101954.03;5055614;28;20426;-87
2022/08/30 06:41:31;;;;;;;13.90;10.15;;;;;;;15.67;94.83;101956.25;5052622;28;20139;-87
2022/08/30 06:43:59;;;;;;;14.55;10.15;;;;;;;15.67;94.11;101946.25;5052696;28;20031;-87
2022/08/30 06:46:28;;;;;;;16.95;10.50;;;;;;;15.74;94.14;101952.22;5053189;28;20059;-87
2022/08/30 06:48:54;;;;;;;13.20;10.60;;;;;;;15.82;94.04;101959.00;5052466;28;20033;-87
2022/08/30 06:51:28;;;;;;;13.53;9.40;;;;;;;15.90;92.93;101949.59;5053086;28;20021;-87
2022/08/30 06:53:54;;;;;;;16.90;9.83;;;;;;;15.97;93.03;101954.75;5052722;28;20303;-87
2022/08/30 06:56:20;;;;;;;14.98;9.88;;;;;;;16.06;92.79;101953.16;5055242;28;20094;-87
2022/08/30 06:58:46;;;;;;;11.68;9.27;;;;;;;16.11;91.99;101944.22;5061968;28;20025;-87
2022/08/30 07:01:21;;;;;;;10.73;8.53;;;;;;;16.22;91.18;101955.88;5055562;28;20440;-87
2022/08/30 07:03:46;;;;;;;13.05;10.13;;;;;;;16.31;91.70;101954.25;5053042;28;20113;-87
2022/08/30 07:06:12;;;;;;;11.63;9.40;;;;;;;16.38;90.65;101965.63;5055743;28;20096;-87
2022/08/30 07:08:38;;;;;;;11.65;9.13;;;;;;;16.43;90.11;101957.50;5053000;28;20100;-87
2022/08/30 07:11:05;;;;;;;11.00;9.30;;;;;;;16.48;89.69;101957.50;5059818;28;20035;-87
2022/08/30 07:13:31;;;;;;;12.63;8.63;;;;;;;16.55;89.48;101951.81;5062082;28;20016;-88
2022/08/30 07:15:56;;;;;;;10.95;8.60;;;;;;;16.67;89.49;101962.38;5070445;28;20038;-88
2022/08/30 07:21:12;;;;;;;10.55;8.52;;;;;;;16.93;88.31;101954.25;5071868;28;20447;-87
2022/08/30 07:23:38;;;;;;;10.15;8.45;;;;;;;17.15;87.15;101959.34;5040699;28;20036;-88
2022/08/30 07:26:08;;;;;;;11.40;8.05;;;;;;;17.37;86.07;101975.28;5055286;28;20055;-88
2022/08/30 07:28:37;;;;;;;9.07;8.18;;;;;;;17.47;84.76;101971.72;5071677;28;20036;-87
2022/08/30 07:31:03;;;;;;;10.33;7.87;;;;;;;17.61;84.29;101969.22;5041155;28;20116;-86
2022/08/30 08:53:34;;;;;;;8.43;2.97;;;;;;;20.37;67.06;102002.47;5065801;28;20061;-87
2022/08/30 08:56:03;;;;;;;14.32;3.60;;;;;;;20.62;66.59;102010.50;5070336;28;20037;-87
2022/08/30 08:58:39;;;;;;;32.55;4.70;;;;;;;20.92;65.20;102003.75;5051940;28;20119;-87
2022/08/30 09:01:07;;;;;;;34.40;4.55;;;;;;;21.21;63.89;102015.50;5069844;28;20078;-87
2022/08/30 09:57:51;;;;;;;6.55;2.40;;;;;;;22.29;57.12;101993.31;5058064;28;20544;-88
2022/08/30 10:00:22;;;;;;;6.33;2.47;;;;;;;22.45;56.04;102002.00;5049840;28;20048;-88
2022/08/30 11:02:40;;;;;;;9.63;2.15;;;;;;;24.08;49.99;101946.91;3503358;22;20135;-88
2022/08/30 11:06:00;;;;;;;7.20;1.90;;;;;;;24.29;48.56;101977.94;5016743;28;20494;-87
2022/08/30 11:08:44;;;;;;;3.92;1.92;;;;;;;24.07;48.69;101953.50;5036553;28;20041;-88
2022/08/30 11:11:30;;;;;;;3.15;1.90;;;;;;;24.17;48.20;101975.06;5035870;28;20028;-88
2022/08/30 11:14:00;;;;;;;5.50;2.10;;;;;;;24.11;48.48;101965.41;5033125;28;20468;-88
2022/08/30 11:16:38;;;;;;;4.22;2.20;;;;;;;24.39;48.73;101973.28;5072689;28;20380;-87
2022/08/30 11:19:25;;;;;;;9.37;1.70;;;;;;;24.34;47.42;101969.56;5072811;28;20025;-89
2022/08/30 11:21:51;;;;;;;4.03;2.03;;;;;;;24.53;47.27;101973.88;5071996;28;20332;-89
2022/08/30 11:24:24;;;;;;;3.20;2.08;;;;;;;24.59;46.70;101958.91;5070785;28;20040;-89
2022/08/30 11:26:53;;;;;;;6.45;1.90;;;;;;;24.89;46.62;101969.16;5054467;28;20111;-89
2022/08/30 11:29:43;;;;;;;7.95;2.10;;;;;;;25.22;45.66;101980.25;5072503;28;20424;-89
2022/08/30 11:32:11;;;;;;;2.92;1.92;;;;;;;25.38;45.56;101979.72;5071419;28;20025;-88
2022/08/30 11:34:45;;;;;;;4.78;1.77;;;;;;;25.34;44.99;101976.81;5071234;28;20052;-89
2022/08/30 11:37:34;;;;;;;4.63;2.03;;;;;;;25.24;46.04;101983.47;5052858;28;20052;-89
2022/08/30 11:40:05;;;;;;;7.75;2.20;;;;;;;25.16;44.82;101970.63;5071903;28;20647;-89
2022/08/30 11:42:38;;;;;;;4.68;2.10;;;;;;;25.21;44.83;101977.88;5072170;28;20016;-88
2022/08/30 11:45:22;;;;;;;6.73;2.33;;;;;;;25.51;45.64;101975.13;5063699;28;20389;-89
2022/08/30 11:47:59;;;;;;;5.13;2.20;;;;;;;25.55;44.28;101968.66;5051637;28;20282;-89
2022/08/30 11:50:47;;;;;;;4.13;2.30;;;;;;;25.45;43.76;101971.00;5051823;28;20025;-88
2022/08/30 11:53:48;;;;;;;6.05;2.20;;;;;;;25.55;44.31;101952.19;5043524;28;20432;-89
2022/08/30 11:56:24;;;;;;;5.97;2.33;;;;;;;25.45;43.45;101958.06;5051514;28;20041;-89
2022/08/30 12:35:34;;;;;;;5.20;1.90;;;;;;;25.97;41.72;101931.34;5029045;28;20416;-89
2022/08/30 12:41:03;;;;;;;5.07;2.30;;;;;;;26.17;40.14;101926.19;5033033;28;20345;-88
2022/08/30 12:43:36;;;;;;;3.67;1.70;;;;;;;26.40;40.45;101924.66;5051170;28;20025;-89
2022/08/30 12:46:07;;;;;;;3.28;1.83;;;;;;;26.51;40.58;101918.69;5047690;23;20026;-89
2022/08/30 12:48:35;;;;;;;6.63;1.87;;;;;;;26.56;39.25;101919.31;5071133;28;20025;-88
2022/08/30 12:51:02;;;;;;;9.80;1.83;;;;;;;26.58;38.76;101924.44;5069935;28;20333;-89
2022/08/30 12:53:29;;;;;;;4.57;1.70;;;;;;;26.73;38.90;101915.53;5071002;28;20020;-89
2022/08/30 12:55:58;;;;;;;4.72;2.00;;;;;;;27.06;38.66;101931.13;5069755;28;20435;-89
2022/08/30 12:58:46;;;;;;;5.95;1.95;;;;;;;27.31;38.22;101920.09;5070947;28;20029;-89
2022/08/30 13:01:26;;;;;;;4.70;2.03;;;;;;;27.46;37.79;101921.38;5052075;28;20027;-89
2022/08/30 13:04:18;;;;;;;7.30;1.90;;;;;;;27.51;38.17;101915.59;5070784;28;20028;-90
2022/08/30 13:06:59;;;;;;;22.23;2.50;;;;;;;27.59;38.21;101918.56;5070423;28;20025;-90
2022/08/30 13:09:32;;;;;;;8.93;2.03;;;;;;;27.73;36.65;101912.69;5071076;28;20024;-89
2022/08/30 13:12:00;;;;;;;5.18;1.92;;;;;;;27.74;36.18;101912.31;5070307;28;20392;-89
2022/08/30 13:14:39;;;;;;;5.20;1.70;;;;;;;27.83;36.68;101912.16;5070741;28;20099;-90
2022/08/30 13:17:24;;;;;;;6.83;2.10;;;;;;;27.79;36.93;101916.78;5070515;28;20278;-89
2022/08/30 13:20:02;;;;;;;3.60;1.60;;;;;;;27.66;36.93;101914.06;5071270;28;20457;-91
2022/08/30 13:22:39;;;;;;;4.18;1.90;;;;;;;27.64;36.54;101905.34;5071096;28;20055;-90
2022/08/30 13:25:07;;;;;;;7.85;2.10;;;;;;;27.59;36.59;101896.56;5066231;28;20075;-90
2022/08/30 13:27:35;;;;;;;4.95;1.60;;;;;;;27.42;36.77;101892.09;5050804;28;20473;-90
2022/08/30 13:30:08;;;;;;;13.07;1.75;;;;;;;27.11;37.22;101902.63;5049579;28;20081;-90
2022/08/30 13:32:36;;;;;;;6.78;2.25;;;;;;;27.14;37.01;101896.38;5031872;28;20443;-90
2022/08/30 13:35:03;;;;;;;5.50;1.52;;;;;;;27.03;37.45;101885.06;5051760;28;20047;-90
2022/08/30 13:37:30;;;;;;;3.33;1.90;;;;;;;26.97;37.49;101900.22;5032229;28;20386;-90
2022/08/30 13:39:55;;;;;;;4.70;1.70;;;;;;;26.78;38.05;101875.22;5049339;28;20531;-90
2022/08/30 13:42:20;;;;;;;28.93;2.97;;;;;;;26.82;36.94;101887.16;5049977;28;20283;-90
2022/08/30 13:44:46;;;;;;;5.93;1.97;;;;;;;26.48;37.61;101880.94;5049844;28;20083;-89
2022/08/30 13:47:12;;;;;;;220.83;12.07;;;;;;;26.41;38.16;101874.06;5049627;28;20384;-89
2022/08/30 13:49:42;;;;;;;15.65;2.20;;;;;;;26.64;37.09;101875.56;5050139;28;20025;-89
2022/08/30 13:52:08;;;;;;;4.28;1.73;;;;;;;26.66;37.05;101870.50;5049626;28;20029;-88
2022/08/30 13:54:33;;;;;;;3.85;1.50;;;;;;;27.05;36.84;101877.28;5032159;28;20419;-89
2022/08/30 13:56:59;;;;;;;6.50;1.80;;;;;;;27.25;36.59;101882.97;5048477;28;20082;-89
2022/08/30 13:59:25;;;;;;;2.50;1.60;;;;;;;27.13;36.28;101866.50;5050114;28;20048;-88
2022/08/30 14:01:52;;;;;;;8.07;1.88;;;;;;;27.19;35.86;101870.63;5049277;28;20044;-89
2022/08/30 14:04:17;;;;;;;3.72;1.80;;;;;;;27.29;35.93;101875.63;5049983;28;20159;-88
2022/08/30 14:06:43;;;;;;;8.57;1.80;;;;;;;27.36;35.63;101870.34;5066128;28;20471;-88
2022/08/30 14:09:09;;;;;;;4.30;1.90;;;;;;;27.49;35.53;101864.81;5069393;28;20418;-89
2022/08/30 14:11:35;;;;;;;6.32;2.03;;;;;;;27.40;35.02;101862.19;5069514;28;20035;-89
2022/08/30 14:14:01;;;;;;;3.40;1.97;;;;;;;27.48;35.20;101860.47;5069513;28;20063;-90
2022/08/30 14:16:27;;;;;;;5.03;2.50;;;;;;;27.55;34.67;101868.13;5069010;28;20299;-88
2022/08/30 14:18:53;;;;;;;6.90;1.90;;;;;;;27.39;35.43;101868.06;5069027;28;20100;-89
2022/08/30 14:21:18;;;;;;;4.93;1.92;;;;;;;27.28;35.29;101859.47;5069201;28;20074;-90
2022/08/30 14:23:44;;;;;;;4.00;1.90;;;;;;;27.36;35.86;101859.34;5069818;28;20052;-89
2022/08/30 14:26:15;;;;;;;5.53;2.30;;;;;;;27.51;34.90;101859.78;5058924;28;20086;-90
2022/08/30 14:28:41;;;;;;;6.00;2.05;;;;;;;27.58;35.17;101857.22;5064704;28;20028;-89
2022/08/30 14:31:06;;;;;;;4.77;1.77;;;;;;;27.63;35.21;101856.19;5068773;28;20027;-88
2022/08/30 14:33:34;;;;;;;2.97;1.80;;;;;;;27.58;34.54;101864.69;5069499;28;20029;-90
2022/08/30 14:35:59;;;;;;;4.47;1.67;;;;;;;27.71;34.71;101855.22;5068195;28;20302;-89
2022/08/30 14:38:25;;;;;;;4.35;1.85;;;;;;;27.85;33.68;101856.75;5068877;28;20051;-88
2022/08/30 14:40:50;;;;;;;3.53;1.60;;;;;;;28.31;34.23;101864.63;5068812;28;20028;-89
2022/08/30 14:43:15;;;;;;;5.77;2.10;;;;;;;28.38;33.35;101865.66;5057179;28;20051;-89
2022/08/30 14:45:40;;;;;;;3.17;1.90;;;;;;;28.42;33.10;101862.97;5049402;28;20025;-90
2022/08/30 14:48:08;;;;;;;4.67;1.93;;;;;;;28.42;32.92;101846.44;5051129;28;20040;-89
2022/08/30 14:50:37;;;;;;;5.30;1.83;;;;;;;28.69;33.50;101857.69;5052642;28;20387;-88
2022/08/30 14:53:04;;;;;;;3.78;2.10;;;;;;;28.54;32.73;101846.31;5062051;28;20049;-89
2022/08/30 14:55:31;;;;;;;5.78;2.00;;;;;;;28.41;32.69;101842.06;5073164;28;20035;-89
2022/08/30 14:57:57;;;;;;;5.57;1.90;;;;;;;28.33;32.08;101837.53;5072699;28;20100;-89
2022/08/30 15:41:38;;;;;;;4.75;2.05;;;;;;;26.52;36.04;101804.91;5030753;28;20062;-88
2022/08/30 15:44:03;;;;;;;6.47;1.87;;;;;;;26.57;35.62;101812.91;5030171;28;20136;-89
2022/08/30 15:46:35;;;;;;;3.55;2.30;;;;;;;26.50;36.11;101816.25;5032531;28;20156;-88
2022/08/30 15:49:18;;;;;;;4.28;1.80;;;;;;;26.29;36.56;101810.88;5032428;28;20034;-88
2022/08/30 15:51:46;;;;;;;5.28;2.20;;;;;;;26.00;36.41;101812.63;5031643;28;20025;-88
2022/08/30 15:54:13;;;;;;;4.18;1.80;;;;;;;25.74;37.39;101812.88;5030883;28;20030;-88
2022/08/30 15:56:39;;;;;;;4.80;1.53;;;;;;;25.77;37.88;101815.75;5032276;28;20104;-88
2022/08/30 15:59:05;;;;;;;4.57;1.93;;;;;;;25.61;37.22;101815.59;5031042;28;20355;-88
2022/08/30 16:01:31;;;;;;;2.53;2.00;;;;;;;25.60;38.09;101818.66;5031451;28;20079;-88
2022/08/30 16:03:57;;;;;;;3.43;2.00;;;;;;;25.40;37.65;101807.34;5030584;28;20037;-88
2022/08/30 16:06:26;;;;;;;4.47;1.75;;;;;;;25.27;38.25;101813.91;5032079;28;20026;-88
2022/08/30 16:08:52;;;;;;;6.38;2.00;;;;;;;25.17;38.58;101796.75;5014113;28;20017;-87
2022/08/30 16:50:11;;;;;;;3.58;1.65;;;;;;;24.18;39.48;101795.97;5047230;28;20041;-86
2022/08/30 16:52:37;;;;;;;5.20;1.70;;;;;;;24.10;40.31;101763.97;5051310;28;20021;-85
2022/08/30 16:55:06;;;;;;;5.57;1.90;;;;;;;24.28;39.67;101765.53;5050126;28;20053;-86
2022/08/30 17:04:10;;;;;;;7.40;2.00;;;;;;;24.20;39.67;101782.78;5030009;28;20080;-85
2022/08/30 18:32:08;;;;;;;4.88;1.33;;;;;;;21.58;45.56;101858.25;6096216;22;20293;31